Time;durP1;ratioP1;P1;durP2;ratioP2;P2;SDS_P1;SDS_P2;PMS_P1;PMS_P2;Temp;Humidity;BMP_temperature;BMP_pressure;BME280_temperature;BME280_humidity;BME280_pressure;Samples;Min_cycle;Max_cycle;Signal;HPM_P1;HPM_P2
2021/12/01 00:02:00;;;;;;;5.85;3.85;;;;;;;9.01;97.09;100080.97;5022790;28;20113;-72
2021/12/01 00:04:25;;;;;;;5.63;3.90;;;;;;;9.01;97.13;100073.69;5022228;28;20421;-72
2021/12/01 00:06:51;;;;;;;5.47;3.97;;;;;;;9.02;96.87;100071.84;5009996;28;20022;-75
2021/12/01 00:09:16;;;;;;;5.10;3.63;;;;;;;9.02;96.81;100063.72;5016796;28;20029;-72
2021/12/01 00:11:41;;;;;;;4.93;3.70;;;;;;;9.00;97.30;100063.84;5012601;28;20412;-75
2021/12/01 00:14:07;;;;;;;4.95;4.00;;;;;;;8.99;97.07;100039.53;5024552;28;20018;-75
2021/12/01 00:16:32;;;;;;;6.82;3.83;;;;;;;9.01;97.31;100038.44;5027032;28;20033;-75
2021/12/01 00:18:58;;;;;;;5.20;4.18;;;;;;;9.01;96.74;100027.59;5020013;28;20034;-75
2021/12/01 00:21:23;;;;;;;4.72;3.58;;;;;;;9.01;96.89;100027.59;5010292;28;20484;-76
2021/12/01 00:23:49;;;;;;;4.10;3.33;;;;;;;9.00;96.57;100006.88;5022571;28;20044;-73
2021/12/01 00:26:14;;;;;;;6.15;4.55;;;;;;;9.01;96.74;99999.59;5027381;28;20076;-75
2021/12/01 00:28:39;;;;;;;4.45;3.40;;;;;;;9.00;96.84;99987.00;5025468;28;20032;-75
2021/12/01 00:31:05;;;;;;;4.50;3.47;;;;;;;9.01;96.58;99986.03;5025549;28;20044;-75
2021/12/01 00:33:30;;;;;;;4.13;3.13;;;;;;;9.01;96.61;99981.47;5021421;28;20444;-72
2021/12/01 00:35:56;;;;;;;4.32;3.22;;;;;;;9.01;96.71;99975.19;5022736;28;20041;-71
2021/12/01 00:38:23;;;;;;;4.75;3.30;;;;;;;8.98;96.81;99960.00;5023801;28;20021;-78
2021/12/01 00:40:49;;;;;;;4.10;3.20;;;;;;;9.01;96.58;99965.19;5017248;28;20029;-74
2021/12/01 00:43:18;;;;;;;8.73;3.35;;;;;;;9.00;96.61;99958.03;5019170;28;20033;-78
2021/12/01 00:45:53;;;;;;;3.63;2.90;;;;;;;8.99;96.79;99953.56;5013514;28;20036;-75
2021/12/01 00:48:19;;;;;;;6.75;3.28;;;;;;;9.00;96.61;99946.28;5021325;28;20052;-77
2021/12/01 00:50:46;;;;;;;7.38;3.10;;;;;;;8.98;96.61;99940.16;5025738;28;20018;-72
2021/12/01 00:53:11;;;;;;;3.47;2.78;;;;;;;8.99;96.77;99947.28;5015003;28;20025;-73
2021/12/01 00:55:37;;;;;;;4.13;2.78;;;;;;;8.97;96.42;99938.44;5016043;28;20092;-72
2021/12/01 00:58:04;;;;;;;3.92;2.60;;;;;;;8.97;96.62;99935.72;5019080;28;20037;-78
2021/12/01 01:00:30;;;;;;;4.28;3.00;;;;;;;8.98;96.31;99926.59;5026199;28;20598;-72
2021/12/01 01:02:57;;;;;;;4.38;3.20;;;;;;;8.98;96.55;99922.00;5022780;28;20018;-77
2021/12/01 01:05:22;;;;;;;4.00;2.80;;;;;;;8.95;96.33;99922.25;5015925;28;20048;-74
2021/12/01 01:07:48;;;;;;;3.75;3.00;;;;;;;8.95;96.65;99914.13;5024316;28;20038;-72
2021/12/01 01:18:24;;;;;;;4.03;2.95;;;;;;;8.91;96.21;99891.81;5027241;28;20041;-79
2021/12/01 01:20:49;;;;;;;4.85;3.55;;;;;;;8.90;96.31;99890.06;5024538;28;20021;-74
2021/12/01 01:23:15;;;;;;;5.30;4.22;;;;;;;8.89;95.82;99895.63;5012437;28;20095;-73
2021/12/01 01:25:40;;;;;;;4.00;3.30;;;;;;;8.88;96.00;99875.78;5024949;28;20104;-72
2021/12/01 01:28:05;;;;;;;6.30;3.95;;;;;;;8.87;95.99;99882.22;5021905;28;20029;-78
2021/12/01 01:30:32;;;;;;;5.20;3.70;;;;;;;8.86;95.81;99875.06;5019228;28;20021;-72
2021/12/01 01:32:57;;;;;;;6.97;4.60;;;;;;;8.83;95.88;99856.31;5014009;28;20402;-71
2021/12/01 01:35:23;;;;;;;5.90;4.68;;;;;;;8.81;95.73;99866.44;5022697;28;20052;-75
2021/12/01 01:37:48;;;;;;;6.15;5.20;;;;;;;8.83;95.82;99866.31;5026943;28;20025;-77
2021/12/01 01:40:14;;;;;;;8.55;5.35;;;;;;;8.79;95.68;99857.53;5030430;28;20025;-77
2021/12/01 01:42:39;;;;;;;8.05;5.13;;;;;;;8.78;95.36;99855.81;5028621;28;20393;-73
2021/12/01 01:45:05;;;;;;;9.30;5.28;;;;;;;8.75;95.67;99847.94;5010114;28;20030;-72
2021/12/01 01:47:31;;;;;;;7.20;5.13;;;;;;;8.72;95.58;99845.47;5022279;28;20061;-77
2021/12/01 01:50:12;;;;;;;7.88;5.72;;;;;;;8.70;95.23;99831.19;5029294;28;20029;-71
2021/12/01 01:52:38;;;;;;;8.00;5.35;;;;;;;8.69;95.88;99830.31;5029465;28;20541;-78
2021/12/01 01:55:04;;;;;;;6.10;4.88;;;;;;;8.67;95.22;99825.97;5023207;28;20033;-72
2021/12/01 01:57:29;;;;;;;8.45;5.30;;;;;;;8.65;95.40;99834.25;5027298;28;20029;-72
2021/12/01 01:59:54;;;;;;;7.00;5.03;;;;;;;8.65;95.45;99826.13;5025443;28;20124;-71
2021/12/01 02:02:19;;;;;;;9.23;5.75;;;;;;;8.61;95.20;99810.22;5027383;28;20029;-71
2021/12/01 02:04:45;;;;;;;7.72;5.30;;;;;;;8.59;95.42;99810.34;5029967;28;20534;-74
2021/12/01 02:07:10;;;;;;;5.55;4.57;;;;;;;8.58;95.17;99803.22;5013354;28;20026;-72
2021/12/01 02:09:35;;;;;;;5.63;4.93;;;;;;;8.57;95.28;99793.34;5028246;28;20033;-75
2021/12/01 02:12:02;;;;;;;6.47;5.18;;;;;;;8.56;95.31;99788.91;5024493;28;20025;-71
2021/12/01 02:14:29;;;;;;;5.43;4.38;;;;;;;8.57;95.38;99784.34;5027156;28;20084;-72
2021/12/01 02:16:57;;;;;;;8.98;4.20;;;;;;;8.54;95.12;99781.91;5017644;28;20017;-71
2021/12/01 02:19:22;;;;;;;5.70;4.72;;;;;;;8.52;94.76;99765.75;5022987;28;20089;-74
2021/12/01 02:21:48;;;;;;;5.45;4.05;;;;;;;8.49;94.80;99760.59;5024688;28;20111;-77
2021/12/01 02:24:15;;;;;;;6.25;4.18;;;;;;;8.49;94.91;99760.59;5025181;28;20036;-76
2021/12/01 02:26:46;;;;;;;5.25;4.07;;;;;;;8.48;94.79;99758.00;5028068;28;20496;-73
2021/12/01 02:29:17;;;;;;;5.25;3.33;;;;;;;8.48;94.66;99741.72;5019544;28;20029;-75
2021/12/01 02:31:44;;;;;;;3.90;3.45;;;;;;;8.45;94.25;99739.28;5027495;28;20025;-73
2021/12/01 02:34:13;;;;;;;4.68;3.22;;;;;;;8.45;94.22;99750.13;5028456;28;20029;-75
2021/12/01 02:36:39;;;;;;;6.47;3.53;;;;;;;8.44;94.78;99727.59;5019813;28;20040;-72
2021/12/01 02:39:09;;;;;;;3.58;2.95;;;;;;;8.42;94.14;99718.69;5025719;28;20017;-78
2021/12/01 02:41:35;;;;;;;4.85;3.42;;;;;;;8.40;94.09;99713.41;5024529;28;20115;-74
2021/12/01 02:44:03;;;;;;;4.82;3.20;;;;;;;8.37;94.40;99699.25;5017165;28;20041;-71
2021/12/01 02:46:28;;;;;;;4.95;2.95;;;;;;;8.36;94.26;99689.38;5025753;28;20498;-72
2021/12/01 02:48:56;;;;;;;4.05;3.00;;;;;;;8.32;94.79;99688.75;5027768;28;20128;-75
2021/12/01 02:51:26;;;;;;;3.00;2.75;;;;;;;8.31;94.19;99687.03;5028571;28;20036;-75
2021/12/01 02:53:52;;;;;;;4.15;3.17;;;;;;;8.29;94.30;99675.44;5024556;28;20033;-76
2021/12/01 02:56:21;;;;;;;2.88;2.67;;;;;;;8.27;93.85;99674.72;5029164;28;20036;-72
2021/12/01 02:58:47;;;;;;;4.55;3.20;;;;;;;8.26;94.14;99662.16;5025314;28;20025;-79
2021/12/01 03:01:21;;;;;;;3.22;2.70;;;;;;;8.26;93.97;99667.59;5028944;28;20021;-73
2021/12/01 03:03:46;;;;;;;3.20;2.58;;;;;;;8.22;94.43;99649.84;5029306;28;20401;-73
2021/12/01 03:06:12;;;;;;;4.50;2.88;;;;;;;8.21;94.38;99652.66;5027328;28;20025;-75
2021/12/01 03:08:41;;;;;;;6.45;3.33;;;;;;;8.16;94.14;99648.50;5020173;28;20655;-77
2021/12/01 03:11:06;;;;;;;4.13;3.40;;;;;;;8.16;93.89;99643.09;5018771;28;20026;-72
2021/12/01 03:13:32;;;;;;;4.00;3.30;;;;;;;8.16;94.03;99644.94;5025598;28;20029;-72
2021/12/01 03:15:58;;;;;;;6.13;3.53;;;;;;;8.15;93.77;99621.53;5028424;28;20240;-72
2021/12/01 03:18:23;;;;;;;6.95;3.92;;;;;;;8.13;93.78;99632.50;5019820;28;20037;-72
2021/12/01 03:20:49;;;;;;;4.10;3.47;;;;;;;8.11;93.89;99620.06;5026090;28;20025;-75
2021/12/01 03:23:15;;;;;;;3.85;3.17;;;;;;;8.14;93.43;99625.22;5023931;28;20105;-73
2021/12/01 03:25:42;;;;;;;5.32;3.72;;;;;;;8.12;93.91;99628.06;5026588;28;20021;-78
2021/12/01 03:28:08;;;;;;;5.75;3.78;;;;;;;8.10;93.55;99611.06;5024377;28;20057;-75
2021/12/01 03:30:37;;;;;;;6.95;4.28;;;;;;;8.07;93.64;99596.94;5022116;28;20409;-72
2021/12/01 03:33:04;;;;;;;7.15;4.43;;;;;;;8.07;93.56;99589.69;5024374;28;20028;-75
2021/12/01 03:35:30;;;;;;;5.60;3.75;;;;;;;8.07;93.48;99594.22;5026226;28;20076;-77
2021/12/01 03:37:55;;;;;;;4.07;3.60;;;;;;;8.05;93.47;99585.34;5026848;28;20026;-76
2021/12/01 03:40:21;;;;;;;6.60;3.78;;;;;;;8.05;93.40;99578.09;5025518;28;20396;-72
2021/12/01 03:42:46;;;;;;;5.07;4.15;;;;;;;8.06;93.20;99573.53;5023647;28;20025;-74
2021/12/01 03:45:13;;;;;;;6.15;3.90;;;;;;;8.03;93.79;99554.84;5025253;28;20022;-71
2021/12/01 03:47:38;;;;;;;4.82;3.63;;;;;;;8.03;93.27;99557.56;5027318;28;20474;-78
2021/12/01 03:50:04;;;;;;;5.25;4.05;;;;;;;8.02;93.30;99555.81;5021774;28;20030;-71
2021/12/01 03:52:30;;;;;;;4.85;3.72;;;;;;;8.01;93.76;99557.66;5017825;28;20032;-73
2021/12/01 03:54:55;;;;;;;4.32;3.85;;;;;;;8.00;93.13;99550.53;5026024;28;20746;-71
2021/12/01 03:57:21;;;;;;;6.72;3.83;;;;;;;7.98;93.20;99520.03;5027080;28;20048;-71
2021/12/01 03:59:47;;;;;;;8.13;3.80;;;;;;;7.98;93.34;99522.72;5013799;28;20038;-72
2021/12/01 04:02:12;;;;;;;5.43;4.20;;;;;;;7.97;93.23;99503.88;5026188;28;20029;-71
2021/12/01 04:04:38;;;;;;;5.00;3.88;;;;;;;7.93;93.00;99484.34;5022346;28;20112;-75
2021/12/01 04:07:03;;;;;;;5.97;4.30;;;;;;;7.93;93.56;99498.72;5022909;28;20037;-77
2021/12/01 04:09:31;;;;;;;4.15;3.60;;;;;;;7.92;93.24;99493.41;5015465;28;20040;-77
2021/12/01 04:11:56;;;;;;;4.75;3.70;;;;;;;7.87;93.45;99476.69;5023489;28;20029;-72
2021/12/01 04:14:21;;;;;;;4.72;3.85;;;;;;;7.94;92.59;99472.50;5024716;28;20374;-70
2021/12/01 04:16:47;;;;;;;6.00;4.78;;;;;;;7.93;92.68;99474.38;5027013;28;20025;-75
2021/12/01 04:19:12;;;;;;;4.72;4.20;;;;;;;7.94;93.00;99469.81;5026121;28;20450;-74
2021/12/01 04:21:38;;;;;;;5.93;4.32;;;;;;;7.92;92.88;99466.34;5014727;28;20045;-75
2021/12/01 04:24:04;;;;;;;5.78;4.47;;;;;;;7.90;92.43;99468.34;5023026;28;20028;-75
2021/12/01 04:26:32;;;;;;;5.35;4.22;;;;;;;7.91;92.74;99453.81;5027092;28;20112;-74
2021/12/01 04:28:58;;;;;;;4.03;3.30;;;;;;;7.89;92.50;99448.53;5018719;28;20021;-79
2021/12/01 04:31:24;;;;;;;4.22;3.45;;;;;;;7.87;92.73;99436.09;5027204;28;20075;-79
2021/12/01 04:33:49;;;;;;;4.70;3.53;;;;;;;7.87;92.62;99425.25;5022251;28;20028;-72
2021/12/01 04:36:17;;;;;;;7.80;3.33;;;;;;;7.84;92.16;99423.69;5022528;28;20055;-72
2021/12/01 04:38:43;;;;;;;4.60;3.72;;;;;;;7.86;92.06;99410.88;5027169;28;20392;-75
2021/12/01 04:41:09;;;;;;;5.80;3.05;;;;;;;7.85;92.25;99400.19;5026452;28;20029;-75
2021/12/01 04:43:34;;;;;;;3.95;3.55;;;;;;;7.83;92.09;99389.50;5010325;28;20025;-75
2021/12/01 04:46:00;;;;;;;4.10;2.88;;;;;;;7.79;92.34;99379.91;5020543;28;20021;-72
2021/12/01 04:48:29;;;;;;;3.88;2.70;;;;;;;7.78;91.99;99380.88;5019098;28;20459;-77
2021/12/01 04:50:55;;;;;;;5.35;2.55;;;;;;;7.79;92.08;99371.78;5026137;28;20037;-76
2021/12/01 04:53:20;;;;;;;4.55;2.70;;;;;;;7.76;92.20;99377.44;5027543;28;20381;-72
2021/12/01 04:55:46;;;;;;;4.05;3.17;;;;;;;7.76;92.30;99372.03;5024927;28;20072;-71
2021/12/01 04:58:11;;;;;;;3.45;2.70;;;;;;;7.74;92.57;99382.13;5019129;28;20033;-77
2021/12/01 05:00:37;;;;;;;4.25;3.03;;;;;;;7.71;93.03;99360.72;5027568;28;20501;-71
2021/12/01 05:03:03;;;;;;;3.95;2.75;;;;;;;7.69;93.00;99354.56;5026419;28;20048;-77
2021/12/01 05:05:29;;;;;;;3.88;2.75;;;;;;;7.64;93.13;99345.97;5027409;28;20029;-72
2021/12/01 05:07:54;;;;;;;3.05;2.65;;;;;;;7.63;93.23;99357.81;5024417;28;20032;-74
2021/12/01 05:10:20;;;;;;;4.07;2.80;;;;;;;7.58;93.73;99351.91;5025664;28;20485;-74
2021/12/01 05:12:45;;;;;;;3.67;3.00;;;;;;;7.57;93.92;99351.06;5024655;28;20033;-78
2021/12/01 05:15:10;;;;;;;4.55;2.85;;;;;;;7.54;93.75;99332.38;5027183;28;20033;-75
2021/12/01 05:17:36;;;;;;;3.33;2.60;;;;;;;7.52;93.88;99328.94;5019612;28;20028;-75
2021/12/01 05:20:04;;;;;;;7.85;3.10;;;;;;;7.49;94.14;99345.44;5010747;28;20040;-75
2021/12/01 05:22:30;;;;;;;3.25;2.60;;;;;;;7.51;93.89;99339.91;5018110;28;20104;-72
2021/12/01 05:24:55;;;;;;;3.28;2.20;;;;;;;7.49;94.09;99318.38;5013071;28;20481;-78
2021/12/01 05:27:21;;;;;;;2.63;2.05;;;;;;;7.45;94.40;99306.09;5043430;28;20495;-74
2021/12/01 05:29:47;;;;;;;2.70;2.35;;;;;;;7.41;94.26;99308.22;5021941;28;20026;-72
2021/12/01 05:32:13;;;;;;;5.68;2.30;;;;;;;7.45;94.42;99313.34;5013658;28;20037;-73
2021/12/01 05:34:38;;;;;;;4.15;1.92;;;;;;;7.42;94.26;99314.47;5024661;28;20497;-75
2021/12/01 05:37:04;;;;;;;4.35;2.08;;;;;;;7.42;94.71;99300.94;5020281;28;20045;-74
2021/12/01 05:39:29;;;;;;;2.55;2.10;;;;;;;7.43;94.70;99312.63;5020739;28;20104;-75
2021/12/01 05:41:56;;;;;;;2.55;1.95;;;;;;;7.39;94.40;99298.50;5015998;28;20028;-77
2021/12/01 05:44:22;;;;;;;2.90;1.70;;;;;;;7.39;95.02;99290.38;5015746;28;20044;-78
2021/12/01 05:46:48;;;;;;;5.20;1.98;;;;;;;7.36;95.29;99287.91;5019437;28;20040;-75
2021/12/01 05:49:13;;;;;;;2.33;1.95;;;;;;;7.35;94.73;99270.84;5018584;28;20489;-75
2021/12/01 05:51:38;;;;;;;2.40;1.45;;;;;;;7.35;95.16;99295.19;5019671;28;20033;-75
2021/12/01 05:54:03;;;;;;;2.30;1.95;;;;;;;7.33;95.17;99261.16;5029903;28;20435;-72
2021/12/01 05:56:30;;;;;;;3.15;2.40;;;;;;;7.32;95.21;99252.19;5018024;28;20018;-72
2021/12/01 05:58:56;;;;;;;2.35;2.15;;;;;;;7.33;95.51;99262.00;5033723;28;20026;-79
2021/12/01 06:01:21;;;;;;;1.88;1.58;;;;;;;7.32;95.26;99254.88;5027714;28;20029;-72
2021/12/01 06:03:46;;;;;;;1.65;1.55;;;;;;;7.29;95.37;99254.28;5030660;28;20486;-74
2021/12/01 06:06:12;;;;;;;2.28;1.80;;;;;;;7.29;95.50;99238.91;5027293;28;20033;-72
2021/12/01 06:08:37;;;;;;;3.15;1.90;;;;;;;7.30;95.65;99239.75;5017301;28;20034;-71
2021/12/01 06:11:03;;;;;;;2.25;2.00;;;;;;;7.30;95.24;99221.69;5011442;28;20082;-75
2021/12/01 06:13:28;;;;;;;2.03;1.52;;;;;;;7.31;95.29;99227.94;5019059;28;20057;-71
2021/12/01 06:15:54;;;;;;;3.75;2.00;;;;;;;7.31;95.30;99225.25;5017246;28;20063;-72
2021/12/01 06:18:19;;;;;;;1.75;1.40;;;;;;;7.30;95.68;99215.41;5023174;28;20029;-73
2021/12/01 06:20:45;;;;;;;4.55;2.30;;;;;;;7.31;95.36;99209.00;5018015;28;20430;-71
2021/12/01 06:23:10;;;;;;;2.72;1.73;;;;;;;7.29;95.90;99209.16;5025022;28;20033;-71
2021/12/01 06:25:36;;;;;;;3.83;2.03;;;;;;;7.26;95.85;99186.91;5019976;28;20022;-71
2021/12/01 06:28:02;;;;;;;3.65;2.08;;;;;;;7.33;95.43;99193.53;5010604;28;20039;-74
2021/12/01 06:30:31;;;;;;;1.80;1.60;;;;;;;7.32;95.57;99178.25;5024724;28;20383;-73
2021/12/01 06:32:57;;;;;;;4.43;2.30;;;;;;;7.34;95.40;99181.72;5043848;28;20032;-71
2021/12/01 06:35:22;;;;;;;2.90;1.83;;;;;;;7.33;95.55;99188.97;5023394;28;20053;-76
2021/12/01 06:37:47;;;;;;;2.45;1.75;;;;;;;7.36;95.50;99174.31;5026288;28;20401;-75
2021/12/01 06:40:14;;;;;;;2.13;1.65;;;;;;;7.35;95.37;99181.56;5025477;28;20036;-78
2021/12/01 06:42:39;;;;;;;5.18;3.35;;;;;;;7.35;95.56;99172.59;5025411;28;20029;-74
2021/12/01 06:45:08;;;;;;;3.13;2.30;;;;;;;7.36;95.91;99177.00;5019833;28;20367;-72
2021/12/01 06:47:33;;;;;;;2.20;2.00;;;;;;;7.39;95.28;99165.94;5019031;28;20558;-71
2021/12/01 06:49:59;;;;;;;2.40;2.17;;;;;;;7.36;95.76;99164.34;5002746;28;20029;-73
2021/12/01 06:52:27;;;;;;;3.30;2.08;;;;;;;7.39;95.65;99164.09;5013515;28;20405;-74
2021/12/01 06:54:53;;;;;;;2.50;2.20;;;;;;;7.36;96.00;99150.81;5013671;28;20025;-72
2021/12/01 06:57:19;;;;;;;2.45;2.22;;;;;;;7.41;95.70;99155.81;5011217;28;20041;-74
2021/12/01 06:59:44;;;;;;;2.10;1.90;;;;;;;7.43;95.52;99155.72;5020312;28;20052;-74
2021/12/01 07:02:10;;;;;;;2.47;1.90;;;;;;;7.43;95.92;99150.31;5016983;28;20487;-77
2021/12/01 07:04:35;;;;;;;2.17;1.98;;;;;;;7.44;96.34;99138.47;5016888;28;20025;-72
2021/12/01 07:07:00;;;;;;;2.53;2.20;;;;;;;7.44;95.88;99139.34;5020022;28;20466;-74
2021/12/01 07:09:26;;;;;;;3.83;2.40;;;;;;;7.47;96.19;99152.59;5028489;28;20056;-75
2021/12/01 07:11:52;;;;;;;3.97;2.63;;;;;;;7.48;96.31;99148.91;5027129;28;20404;-75
2021/12/01 07:14:17;;;;;;;3.53;2.50;;;;;;;7.48;96.07;99142.63;5026964;28;20026;-75
2021/12/01 07:16:43;;;;;;;4.05;2.50;;;;;;;7.50;95.97;99137.94;5028243;28;20055;-72
2021/12/01 07:19:09;;;;;;;4.13;2.63;;;;;;;7.52;96.13;99130.56;5016909;28;20030;-72
2021/12/01 07:21:35;;;;;;;3.10;2.60;;;;;;;7.53;96.52;99126.84;5019776;28;20492;-75
2021/12/01 07:24:02;;;;;;;6.20;3.03;;;;;;;7.53;96.75;99132.28;5016531;28;20026;-75
2021/12/01 07:26:27;;;;;;;2.97;2.40;;;;;;;7.57;96.11;99141.84;5021316;28;20489;-72
2021/12/01 07:28:52;;;;;;;4.10;2.83;;;;;;;7.57;96.22;99141.84;5020327;28;20053;-72
2021/12/01 07:31:18;;;;;;;2.78;2.58;;;;;;;7.60;96.43;99136.13;5021301;28;20109;-72
2021/12/01 07:33:43;;;;;;;3.55;2.92;;;;;;;7.61;96.45;99127.91;5025952;28;20021;-75
2021/12/01 07:36:08;;;;;;;3.58;2.58;;;;;;;7.61;96.45;99133.31;5019571;28;20797;-77
2021/12/01 07:38:34;;;;;;;5.25;2.42;;;;;;;7.63;96.60;99125.91;5011931;28;20330;-75
2021/12/01 07:40:59;;;;;;;5.55;3.30;;;;;;;7.64;96.24;99127.63;5027714;28;20026;-70
2021/12/01 07:43:24;;;;;;;3.83;2.25;;;;;;;7.66;96.36;99122.09;5023150;28;20067;-77
2021/12/01 07:45:49;;;;;;;3.13;2.75;;;;;;;7.68;96.00;99114.69;5017842;28;20033;-76
2021/12/01 07:48:15;;;;;;;2.97;2.45;;;;;;;7.69;96.37;99110.97;5025034;28;20033;-75
2021/12/01 07:50:41;;;;;;;4.43;2.63;;;;;;;7.72;96.43;99112.56;5026498;28;20029;-79
2021/12/01 07:53:06;;;;;;;5.20;2.45;;;;;;;7.74;95.79;99100.63;5023453;28;20141;-78
2021/12/01 07:55:32;;;;;;;3.05;2.28;;;;;;;7.75;96.19;99099.63;5026417;28;20124;-71
2021/12/01 07:57:57;;;;;;;2.95;2.65;;;;;;;7.78;95.98;99090.34;5026481;28;20507;-74
2021/12/01 08:00:22;;;;;;;5.28;2.50;;;;;;;7.76;96.02;99092.34;5026339;28;20029;-76
2021/12/01 08:02:48;;;;;;;2.67;2.40;;;;;;;7.79;95.82;99095.66;5027986;28;20025;-71
2021/12/01 08:05:13;;;;;;;5.95;3.00;;;;;;;7.82;95.83;99098.06;5023960;28;20034;-71
2021/12/01 08:07:39;;;;;;;3.65;2.65;;;;;;;7.83;95.61;99099.81;5032479;28;20096;-74
2021/12/01 08:10:06;;;;;;;2.88;2.55;;;;;;;7.80;95.66;99091.09;5013248;28;20116;-78
2021/12/01 08:12:34;;;;;;;5.72;4.15;;;;;;;7.87;95.68;99086.81;5023025;28;20140;-73
2021/12/01 08:15:05;;;;;;;3.75;2.78;;;;;;;7.88;95.62;99088.53;5021541;28;20017;-77
2021/12/01 08:17:30;;;;;;;4.40;2.55;;;;;;;7.90;95.76;99089.28;5025570;28;20033;-71
2021/12/01 08:19:57;;;;;;;4.22;3.25;;;;;;;7.90;95.56;99071.16;5021040;28;20070;-74
2021/12/01 08:22:27;;;;;;;3.90;3.15;;;;;;;7.92;95.68;99069.16;5015118;28;20026;-77
2021/12/01 08:24:54;;;;;;;4.00;3.33;;;;;;;7.96;95.70;99074.31;5027774;28;20155;-72
2021/12/01 08:27:19;;;;;;;3.38;2.88;;;;;;;7.96;95.66;99077.88;5025351;28;20018;-72
2021/12/01 08:29:44;;;;;;;5.30;3.50;;;;;;;7.96;95.56;99083.28;5022332;28;20465;-74
2021/12/01 08:32:10;;;;;;;6.15;3.50;;;;;;;7.97;95.58;99071.47;5022787;28;20049;-75
2021/12/01 08:34:35;;;;;;;3.85;3.08;;;;;;;7.97;95.93;99071.47;5026979;28;20147;-75
2021/12/01 08:37:00;;;;;;;4.68;3.53;;;;;;;7.99;95.46;99064.06;5022630;28;20462;-71
2021/12/01 08:39:26;;;;;;;3.85;3.33;;;;;;;8.00;95.03;99059.50;5025804;28;20033;-73
2021/12/01 08:41:51;;;;;;;5.82;3.72;;;;;;;8.04;94.97;99064.50;5022623;28;20398;-77
2021/12/01 08:44:18;;;;;;;5.18;3.88;;;;;;;8.07;94.99;99050.69;5014011;28;20026;-74
2021/12/01 08:46:43;;;;;;;4.15;3.67;;;;;;;8.08;95.48;99046.13;5030854;28;20021;-72
2021/12/01 08:49:08;;;;;;;5.28;3.30;;;;;;;8.14;95.15;99046.41;5025049;28;20112;-72
2021/12/01 08:51:35;;;;;;;4.68;3.17;;;;;;;8.18;94.89;99055.13;5030053;28;20056;-78
2021/12/01 08:54:01;;;;;;;3.28;2.75;;;;;;;8.24;94.49;99048.28;5031039;28;20025;-79
2021/12/01 08:56:26;;;;;;;4.13;2.92;;;;;;;8.32;94.65;99053.88;5028951;28;20022;-72
2021/12/01 08:58:51;;;;;;;3.85;2.60;;;;;;;8.38;94.41;99059.59;5021978;28;20018;-77
2021/12/01 09:01:17;;;;;;;4.22;2.70;;;;;;;8.44;93.88;99050.06;5025494;28;20060;-77
2021/12/01 09:03:42;;;;;;;3.13;2.83;;;;;;;8.48;93.94;99051.47;5031120;28;20030;-72
2021/12/01 09:06:07;;;;;;;3.58;2.65;;;;;;;8.49;93.64;99033.38;5029151;28;20029;-74
2021/12/01 09:08:33;;;;;;;3.85;2.67;;;;;;;8.50;93.70;99040.50;5030524;28;20021;-74
2021/12/01 09:11:02;;;;;;;5.18;2.58;;;;;;;8.48;93.64;99059.59;5029133;28;20108;-76
2021/12/01 09:13:30;;;;;;;3.08;2.17;;;;;;;8.46;93.68;99056.19;5026567;28;20034;-78
2021/12/01 09:15:56;;;;;;;2.67;2.40;;;;;;;8.43;93.19;99054.59;5016999;28;20025;-77
2021/12/01 09:18:24;;;;;;;2.60;2.33;;;;;;;8.40;93.30;99056.78;5030760;28;20029;-79
2021/12/01 09:20:50;;;;;;;3.17;2.00;;;;;;;8.38;93.14;99054.19;5029349;28;20021;-73
2021/12/01 09:23:16;;;;;;;2.50;2.15;;;;;;;8.37;93.17;99057.03;5030292;28;20461;-78
2021/12/01 09:25:41;;;;;;;2.30;1.98;;;;;;;8.36;93.38;99061.59;5020819;28;20033;-75
2021/12/01 09:28:06;;;;;;;2.80;2.28;;;;;;;8.36;93.19;99056.19;5022364;28;20021;-71
2021/12/01 09:30:32;;;;;;;4.70;2.42;;;;;;;8.36;93.42;99055.31;5030155;28;20056;-72
2021/12/01 09:32:57;;;;;;;2.75;2.50;;;;;;;8.37;93.52;99060.59;5030077;28;20057;-72
2021/12/01 09:35:23;;;;;;;3.00;2.70;;;;;;;8.36;93.58;99068.84;5027419;28;20053;-72
2021/12/01 09:37:48;;;;;;;4.25;2.20;;;;;;;8.38;93.89;99072.28;5028235;28;20145;-73
2021/12/01 09:40:17;;;;;;;5.45;2.40;;;;;;;8.37;93.69;99076.84;5030650;28;20032;-72
2021/12/01 09:42:46;;;;;;;6.10;2.65;;;;;;;8.37;93.78;99087.69;5023515;28;20033;-72
2021/12/01 09:45:12;;;;;;;3.40;2.28;;;;;;;8.35;93.08;99097.81;5025167;28;20060;-74
2021/12/01 09:47:38;;;;;;;7.80;2.92;;;;;;;8.33;93.06;99086.22;5022068;28;20072;-77
2021/12/01 09:50:05;;;;;;;5.57;2.00;;;;;;;8.30;92.69;99096.47;5030302;28;20045;-74
2021/12/01 09:52:30;;;;;;;4.53;1.92;;;;;;;8.28;92.85;99107.47;5019817;28;20026;-78
2021/12/01 09:54:56;;;;;;;2.83;1.90;;;;;;;8.26;92.54;99097.78;5027859;28;20099;-72
2021/12/01 09:57:21;;;;;;;5.55;2.20;;;;;;;8.24;92.05;99102.47;5027847;28;20394;-72
2021/12/01 09:59:47;;;;;;;6.25;2.20;;;;;;;8.26;91.91;99104.06;5023200;28;20022;-78
2021/12/01 10:02:13;;;;;;;6.50;2.22;;;;;;;8.24;91.85;99099.75;5028385;28;20033;-76
2021/12/01 10:04:38;;;;;;;4.88;1.60;;;;;;;8.25;91.33;99093.34;5022000;28;20441;-77
2021/12/01 10:07:19;;;;;;;11.68;2.00;;;;;;;8.27;91.60;99088.66;5027864;28;20443;-78
2021/12/01 10:09:48;;;;;;;3.80;1.58;;;;;;;8.25;91.78;99087.91;5030143;28;20025;-79
2021/12/01 10:12:14;;;;;;;5.20;1.55;;;;;;;8.18;90.88;99090.34;5023573;28;20022;-75
2021/12/01 10:14:48;;;;;;;11.63;1.65;;;;;;;8.13;91.35;99089.91;5019228;28;20388;-72
2021/12/01 10:17:15;;;;;;;8.65;1.55;;;;;;;8.12;91.23;99097.19;5029641;28;20451;-71
2021/12/01 10:19:41;;;;;;;9.35;1.67;;;;;;;8.13;91.35;99088.06;5027240;28;20539;-75
2021/12/01 10:22:10;;;;;;;6.75;1.77;;;;;;;8.19;91.64;99092.06;5026647;28;20022;-75
2021/12/01 10:24:39;;;;;;;8.57;1.50;;;;;;;8.24;90.99;99091.63;5029663;28;20476;-78
2021/12/01 10:27:11;;;;;;;6.15;1.33;;;;;;;8.28;91.47;99079.53;5029705;28;20385;-72
2021/12/01 10:29:45;;;;;;;9.80;1.98;;;;;;;8.30;90.57;99089.25;5024770;28;20041;-72
2021/12/01 10:32:10;;;;;;;19.10;1.83;;;;;;;8.33;89.46;99101.63;5029175;28;20021;-75
2021/12/01 10:34:47;;;;;;;7.60;1.67;;;;;;;8.32;89.56;99091.81;5024923;28;20032;-72
2021/12/01 10:37:31;;;;;;;6.78;1.50;;;;;;;8.35;89.91;99096.94;5027408;28;20295;-76
2021/12/01 10:40:20;;;;;;;6.50;1.30;;;;;;;8.40;90.69;99090.13;5029474;28;20500;-72
2021/12/01 10:42:56;;;;;;;8.98;1.70;;;;;;;8.46;90.32;99087.84;5026982;28;20394;-75
2021/12/01 10:45:28;;;;;;;6.15;1.50;;;;;;;8.54;90.46;99096.16;5024807;28;20072;-75
2021/12/01 10:47:54;;;;;;;8.02;1.20;;;;;;;8.60;88.31;99079.31;5026740;28;20431;-72
2021/12/01 10:50:22;;;;;;;5.93;1.17;;;;;;;8.67;89.68;99081.31;5028688;28;20037;-71
2021/12/01 10:52:51;;;;;;;4.20;1.27;;;;;;;8.81;87.08;99077.31;5029021;28;20045;-75
2021/12/01 10:55:25;;;;;;;3.55;1.13;;;;;;;8.80;86.75;99066.59;5027784;28;20055;-78
2021/12/01 10:57:57;;;;;;;5.95;1.10;;;;;;;8.77;85.43;99062.34;5015641;28;20484;-72
2021/12/01 11:00:33;;;;;;;6.85;1.20;;;;;;;8.69;85.26;99068.47;5023133;28;20033;-78
2021/12/01 11:03:09;;;;;;;7.13;0.98;;;;;;;8.67;86.82;99066.88;5017044;28;20030;-78
2021/12/01 11:05:48;;;;;;;3.45;1.42;;;;;;;8.60;85.57;99082.03;5026662;28;20029;-72
2021/12/01 11:08:29;;;;;;;7.35;0.90;;;;;;;8.51;86.52;99085.56;5015153;28;20037;-73
2021/12/01 11:10:58;;;;;;;5.28;1.10;;;;;;;8.39;86.57;99084.84;5021565;28;20029;-74
2021/12/01 11:13:24;;;;;;;3.70;1.02;;;;;;;8.27;87.12;99089.50;5011975;28;20164;-75
2021/12/01 11:15:55;;;;;;;6.50;1.35;;;;;;;8.19;88.59;99092.06;5020673;28;20108;-74
2021/12/01 11:18:26;;;;;;;5.93;1.80;;;;;;;8.17;88.31;99096.75;5025489;28;20120;-72
2021/12/01 11:20:54;;;;;;;4.97;0.90;;;;;;;8.15;88.57;99090.59;5023357;28;20029;-75
2021/12/01 11:23:24;;;;;;;2.58;1.02;;;;;;;8.13;87.82;99093.47;5027202;28;20067;-78
2021/12/01 11:25:56;;;;;;;4.43;1.77;;;;;;;8.08;87.53;99103.00;5028025;28;20585;-75
2021/12/01 11:28:27;;;;;;;5.50;1.20;;;;;;;8.04;87.50;99099.72;5025630;28;20128;-72
2021/12/01 11:30:56;;;;;;;5.68;1.73;;;;;;;8.06;86.89;99091.44;5022091;28;20029;-72
2021/12/01 11:33:22;;;;;;;4.85;0.93;;;;;;;8.07;87.87;99095.88;5028051;28;20028;-77
2021/12/01 11:35:50;;;;;;;3.60;1.00;;;;;;;8.06;87.37;99089.59;5027072;28;20428;-74
2021/12/01 11:38:16;;;;;;;7.05;1.00;;;;;;;8.08;87.15;99093.03;5027982;28;20033;-72
2021/12/01 11:40:42;;;;;;;5.53;1.10;;;;;;;8.05;86.57;99092.44;5028290;28;20025;-71
2021/12/01 11:43:10;;;;;;;2.50;0.90;;;;;;;8.05;86.20;99089.72;5020455;28;20880;-74
2021/12/01 11:45:38;;;;;;;3.63;1.00;;;;;;;8.03;86.89;99076.34;5024214;28;20397;-72
2021/12/01 11:48:07;;;;;;;6.50;1.17;;;;;;;8.05;86.56;99084.31;5017405;28;20603;-76